createdAt,value
2022-08-08T00:00:50.324Z,101797.80
2022-08-08T00:03:47.552Z,101796.20
2022-08-08T00:06:42.820Z,101797.80
2022-08-08T00:09:17.787Z,101802.20
2022-08-08T00:12:09.613Z,101801.60
2022-08-08T00:15:06.634Z,101803.00
2022-08-08T00:18:03.107Z,101799.00
2022-08-08T00:20:49.856Z,101800.40
2022-08-08T00:23:43.176Z,101798.60
2022-08-08T00:26:42.042Z,101799.20
2022-08-08T00:29:45.438Z,101803.80
2022-08-08T00:32:35.157Z,101800.80
2022-08-08T00:35:29.513Z,101802.60
2022-08-08T00:38:52.130Z,101811.40
2022-08-08T00:41:54.626Z,101811.00
2022-08-08T00:44:34.595Z,101812.40
2022-08-08T00:48:01.398Z,101817.20
2022-08-08T00:51:26.144Z,101816.00
2022-08-08T00:54:57.298Z,101822.40
2022-08-08T00:57:48.528Z,101819.60
2022-08-08T01:00:34.510Z,101812.00
2022-08-08T01:04:01.459Z,101811.60
2022-08-08T01:07:07.520Z,101807.20
2022-08-08T01:10:42.756Z,101810.60
2022-08-08T01:13:58.210Z,101817.80
2022-08-08T01:17:08.189Z,101814.80
2022-08-08T01:20:02.574Z,101819.00
2022-08-08T01:23:01.696Z,101820.80
2022-08-08T01:26:11.708Z,101824.00
2022-08-08T01:29:28.022Z,101819.60
2022-08-08T01:33:16.011Z,101820.60
2022-08-08T01:36:34.150Z,101820.80
2022-08-08T01:39:27.952Z,101818.80
2022-08-08T01:42:35.809Z,101819.80
2022-08-08T01:45:45.681Z,101823.00
2022-08-08T01:49:14.265Z,101823.60
2022-08-08T01:53:54.155Z,101818.00
2022-08-08T01:56:28.731Z,101821.60
2022-08-08T02:00:01.698Z,101822.00
2022-08-08T02:03:07.401Z,101819.20
2022-08-08T02:06:54.542Z,101815.20
2022-08-08T02:10:03.252Z,101814.80
2022-08-08T02:12:44.034Z,101814.00
2022-08-08T02:15:57.266Z,101818.40
2022-08-08T02:18:51.014Z,101818.80
2022-08-08T02:21:58.447Z,101813.00
2022-08-08T02:24:32.400Z,101815.80
2022-08-08T02:27:11.478Z,101814.60
2022-08-08T02:30:20.824Z,101815.40
2022-08-08T02:33:15.209Z,101811.00
2022-08-08T02:36:03.939Z,101817.60
2022-08-08T02:39:41.745Z,101820.60
2022-08-08T02:44:34.703Z,101816.20
2022-08-08T02:45:58.102Z,101819.80
2022-08-08T02:48:45.271Z,101821.40
2022-08-08T02:52:34.685Z,101829.40
2022-08-08T02:55:37.240Z,101823.20
2022-08-08T02:58:38.017Z,101823.00
2022-08-08T03:01:50.254Z,101823.40
2022-08-08T03:05:03.637Z,101826.00
2022-08-08T03:08:18.124Z,101827.20
2022-08-08T03:11:47.899Z,101824.80
2022-08-08T03:15:57.289Z,101830.60
2022-08-08T03:18:31.440Z,101836.80
2022-08-08T03:21:09.936Z,101835.60
2022-08-08T03:23:59.811Z,101840.20
2022-08-08T03:26:42.745Z,101840.80
2022-08-08T03:29:20.861Z,101842.60
2022-08-08T03:32:15.837Z,101842.80
2022-08-08T03:34:46.980Z,101843.40
2022-08-08T03:38:00.075Z,101841.60
2022-08-08T03:40:28.914Z,101847.20
2022-08-08T03:43:15.578Z,101852.80
2022-08-08T03:46:02.998Z,101856.60
2022-08-08T03:49:10.097Z,101854.20
2022-08-08T03:51:40.043Z,101857.20
2022-08-08T03:54:41.105Z,101857.40
2022-08-08T03:58:35.445Z,101855.20
2022-08-08T04:00:18.061Z,101858.80
2022-08-08T04:03:11.781Z,101856.00
2022-08-08T04:05:48.078Z,101865.60
2022-08-08T04:08:33.444Z,101859.00
2022-08-08T04:11:11.324Z,101861.60
2022-08-08T04:14:04.418Z,101865.80
2022-08-08T04:16:38.482Z,101866.00
2022-08-08T04:19:23.627Z,101870.00
2022-08-08T04:21:56.947Z,101869.00
2022-08-08T04:24:31.242Z,101866.20
2022-08-08T04:27:03.567Z,101863.40
2022-08-08T04:29:40.419Z,101869.60
2022-08-08T04:32:30.908Z,101870.00
2022-08-08T04:35:05.111Z,101866.40
2022-08-08T04:37:37.502Z,101873.20
2022-08-08T04:40:13.112Z,101869.80
2022-08-08T04:42:56.671Z,101869.40
2022-08-08T04:45:44.931Z,101871.80
2022-08-08T04:48:15.883Z,101869.20
2022-08-08T04:50:46.268Z,101865.60
2022-08-08T04:54:27.324Z,101860.40
2022-08-08T04:56:09.996Z,101862.60
2022-08-08T04:58:39.603Z,101861.80
2022-08-08T05:01:11.418Z,101861.80
2022-08-08T05:04:11.202Z,101862.20
2022-08-08T05:06:36.540Z,101863.80
2022-08-08T05:09:10.084Z,101858.40
2022-08-08T05:11:42.261Z,101858.20
2022-08-08T05:14:20.540Z,101857.60
2022-08-08T05:17:01.486Z,101857.20
2022-08-08T05:20:12.960Z,101859.60
2022-08-08T05:22:42.945Z,101857.60
2022-08-08T05:25:12.561Z,101858.60
2022-08-08T05:27:44.422Z,101858.80
2022-08-08T05:30:15.472Z,101859.40
2022-08-08T05:32:49.048Z,101857.80
2022-08-08T05:35:24.181Z,101860.00
2022-08-08T05:38:03.345Z,101858.40
2022-08-08T05:40:58.061Z,101863.80
2022-08-08T05:43:40.257Z,101861.40
2022-08-08T05:46:24.501Z,101861.60
2022-08-08T05:48:55.409Z,101865.00
2022-08-08T05:51:48.699Z,101862.80
2022-08-08T05:54:27.179Z,101863.80
2022-08-08T05:57:16.069Z,101865.80
2022-08-08T06:00:24.971Z,101870.00
2022-08-08T06:03:23.685Z,101872.00
2022-08-08T06:06:07.133Z,101870.40
2022-08-08T06:08:54.805Z,101871.80
2022-08-08T06:11:30.806Z,101864.20
2022-08-08T06:14:06.251Z,101854.20
2022-08-08T06:16:44.491Z,101850.60
2022-08-08T06:19:27.488Z,101846.20
2022-08-08T06:21:57.694Z,101848.00
2022-08-08T06:24:47.389Z,101840.80
2022-08-08T06:27:48.431Z,101832.80
2022-08-08T06:30:26.357Z,101831.20
2022-08-08T06:33:01.187Z,101833.60
2022-08-08T06:36:04.490Z,101836.80
2022-08-08T06:38:28.952Z,101831.20
2022-08-08T06:41:15.364Z,101829.40
2022-08-08T06:43:57.196Z,101837.60
2022-08-08T06:46:31.263Z,101836.20
2022-08-08T06:49:01.387Z,101834.80
2022-08-08T06:51:49.040Z,101847.20
2022-08-08T06:54:23.445Z,101848.00
2022-08-08T06:56:52.971Z,101851.80
2022-08-08T06:59:22.551Z,101850.00
2022-08-08T07:02:28.039Z,101845.00
2022-08-08T07:05:11.875Z,101842.20
2022-08-08T07:08:06.853Z,101848.40
2022-08-08T07:10:47.765Z,101848.00
2022-08-08T07:13:25.214Z,101849.20
2022-08-08T07:16:12.968Z,101852.40
2022-08-08T07:19:09.178Z,101846.00
2022-08-08T07:22:04.880Z,101851.20
2022-08-08T07:24:55.498Z,101848.80
2022-08-08T07:27:47.280Z,101857.60
2022-08-08T07:30:25.329Z,101852.40
2022-08-08T07:32:59.662Z,101849.40
2022-08-08T07:35:31.334Z,101854.00
2022-08-08T07:38:18.235Z,101851.40
2022-08-08T07:41:04.614Z,101854.00
2022-08-08T07:43:39.925Z,101853.60
2022-08-08T07:46:23.529Z,101861.40
2022-08-08T07:49:01.108Z,101860.60
2022-08-08T07:51:45.199Z,101856.60
2022-08-08T07:54:47.014Z,101869.00
2022-08-08T07:57:53.793Z,101868.20
2022-08-08T08:00:25.902Z,101864.40
2022-08-08T08:03:20.716Z,101870.60
2022-08-08T08:05:56.929Z,101866.80
2022-08-08T08:08:52.362Z,101869.60
2022-08-08T08:11:33.629Z,101871.20
2022-08-08T08:14:10.697Z,101873.40
2022-08-08T08:16:48.495Z,101870.20
2022-08-08T08:19:21.224Z,101871.40
2022-08-08T08:21:57.261Z,101873.20
2022-08-08T08:24:35.278Z,101875.60
2022-08-08T08:27:08.393Z,101880.00
2022-08-08T08:29:42.297Z,101880.60
2022-08-08T08:32:12.470Z,101879.20
2022-08-08T08:34:53.960Z,101883.80
2022-08-08T08:37:27.092Z,101883.20
2022-08-08T08:40:02.405Z,101884.60
2022-08-08T08:42:37.316Z,101883.80
2022-08-08T08:45:23.353Z,101889.80
2022-08-08T08:48:01.380Z,101887.20
2022-08-08T08:50:36.249Z,101895.40
2022-08-08T08:53:26.879Z,101891.20
2022-08-08T08:56:06.342Z,101891.20
2022-08-08T08:58:50.570Z,101888.60
2022-08-08T09:01:28.336Z,101891.40
2022-08-08T09:04:31.608Z,101884.20
2022-08-08T09:07:12.240Z,101890.20
2022-08-08T09:09:48.190Z,101889.80
2022-08-08T09:12:29.598Z,101887.80
2022-08-08T09:14:59.964Z,101889.20
2022-08-08T09:17:41.896Z,101885.60
2022-08-08T09:22:01.171Z,101885.20
2022-08-08T09:23:17.570Z,101888.40
2022-08-08T09:26:21.810Z,101884.20
2022-08-08T09:28:53.463Z,101887.80
2022-08-08T09:31:58.365Z,101885.40
2022-08-08T09:34:35.297Z,101881.20
2022-08-08T09:37:39.613Z,101881.80
2022-08-08T09:40:11.137Z,101879.40
2022-08-08T09:42:51.495Z,101889.60
2022-08-08T09:46:00.940Z,101884.80
2022-08-08T09:48:32.439Z,101891.60
2022-08-08T09:51:05.729Z,101888.80
2022-08-08T09:53:56.463Z,101886.40
2022-08-08T09:56:41.006Z,101885.60
2022-08-08T09:59:50.135Z,101885.40
2022-08-08T10:02:12.973Z,101885.80
2022-08-08T10:04:47.775Z,101889.00
2022-08-08T10:07:18.273Z,101888.80
2022-08-08T10:09:59.498Z,101890.00
2022-08-08T10:12:53.042Z,101886.00
2022-08-08T10:15:26.926Z,101879.80
2022-08-08T10:18:06.003Z,101881.00
2022-08-08T10:20:50.927Z,101879.40
2022-08-08T10:23:48.132Z,101872.00
2022-08-08T10:26:30.549Z,101873.40
2022-08-08T10:29:23.240Z,101864.20
2022-08-08T10:32:30.772Z,101866.60
2022-08-08T10:35:10.585Z,101855.40
2022-08-08T10:37:59.293Z,101854.80
2022-08-08T10:40:32.685Z,101853.60
2022-08-08T10:43:05.441Z,101848.20
2022-08-08T10:45:56.003Z,101849.80
2022-08-08T10:48:56.134Z,101841.60
2022-08-08T10:51:47.178Z,101841.60
2022-08-08T10:54:25.209Z,101842.80
2022-08-08T10:57:08.874Z,101841.80
2022-08-08T10:59:39.617Z,101841.60
2022-08-08T11:02:11.541Z,101842.00
2022-08-08T11:04:53.018Z,101833.40
2022-08-08T11:08:30.188Z,101832.20
2022-08-08T11:10:28.711Z,101839.40
2022-08-08T11:13:27.183Z,101834.00
2022-08-08T11:15:58.917Z,101834.60
2022-08-08T11:18:30.873Z,101836.80
2022-08-08T11:21:09.841Z,101834.80
2022-08-08T11:23:42.836Z,101837.60
2022-08-08T11:26:27.378Z,101836.80
2022-08-08T11:29:00.943Z,101842.80
2022-08-08T11:31:47.110Z,101842.60
2022-08-08T11:34:23.397Z,101840.60
2022-08-08T11:37:04.481Z,101838.80
2022-08-08T11:39:57.259Z,101842.40
2022-08-08T11:42:31.145Z,101841.80
2022-08-08T11:45:01.333Z,101840.80
2022-08-08T11:47:39.320Z,101839.60
2022-08-08T11:50:23.297Z,101832.80
2022-08-08T11:52:53.731Z,101831.20
2022-08-08T11:55:27.041Z,101831.40
2022-08-08T11:58:15.026Z,101833.80
2022-08-08T12:00:53.461Z,101828.20
2022-08-08T12:03:36.655Z,101832.80
2022-08-08T12:06:17.957Z,101829.60
2022-08-08T12:08:49.254Z,101829.80
2022-08-08T12:11:23.110Z,101826.60
2022-08-08T12:14:05.184Z,101827.20
2022-08-08T12:16:48.966Z,101830.60
2022-08-08T12:19:21.867Z,101825.20
2022-08-08T12:22:12.846Z,101825.80
2022-08-08T12:24:51.578Z,101824.40
2022-08-08T12:27:26.622Z,101826.60
2022-08-08T12:29:59.334Z,101824.80
2022-08-08T12:32:31.121Z,101820.40
2022-08-08T12:35:04.534Z,101818.40
2022-08-08T12:37:43.421Z,101819.80
2022-08-08T12:40:56.500Z,101820.40
2022-08-08T12:43:46.302Z,101822.60
2022-08-08T12:46:26.123Z,101819.00
2022-08-08T12:52:00.654Z,101821.80
2022-08-08T12:54:36.616Z,101817.40
2022-08-08T12:57:24.489Z,101817.00
2022-08-08T13:00:04.703Z,101819.80
2022-08-08T13:02:51.537Z,101813.40
2022-08-08T13:05:26.379Z,101813.80
2022-08-08T13:08:20.795Z,101815.00
2022-08-08T13:10:58.100Z,101816.60
2022-08-08T13:13:37.047Z,101810.20
2022-08-08T13:16:25.699Z,101813.20
2022-08-08T13:19:01.790Z,101813.40
2022-08-08T13:21:55.315Z,101806.80
2022-08-08T13:24:48.585Z,101809.00
2022-08-08T13:27:35.781Z,101805.60
2022-08-08T13:30:06.962Z,101799.20
2022-08-08T13:32:39.697Z,101799.60
2022-08-08T13:35:29.771Z,101800.00
2022-08-08T13:38:08.428Z,101806.00
2022-08-08T13:40:44.963Z,101806.40
2022-08-08T13:43:16.200Z,101805.20
2022-08-08T13:45:47.294Z,101805.00
2022-08-08T13:48:19.702Z,101802.60
2022-08-08T13:50:58.075Z,101803.40
2022-08-08T13:54:00.723Z,101807.60
2022-08-08T13:56:44.682Z,101804.20
2022-08-08T13:59:48.362Z,101803.40
2022-08-08T14:02:32.707Z,101809.20
2022-08-08T14:05:20.662Z,101808.20
2022-08-08T14:07:52.224Z,101810.80
2022-08-08T14:10:33.688Z,101818.40
2022-08-08T14:13:30.479Z,101811.20
2022-08-08T14:16:04.432Z,101806.00
2022-08-08T14:18:37.076Z,101805.40
2022-08-08T14:21:22.745Z,101809.80
2022-08-08T14:24:07.967Z,101813.20
2022-08-08T14:26:46.404Z,101817.00
2022-08-08T14:29:28.103Z,101814.80
2022-08-08T14:32:09.128Z,101818.60
2022-08-08T14:34:42.140Z,101814.20
2022-08-08T14:37:12.942Z,101821.60
2022-08-08T14:40:05.796Z,101814.80
2022-08-08T14:42:47.347Z,101816.20
2022-08-08T14:45:33.198Z,101823.40
2022-08-08T14:48:16.550Z,101818.20
2022-08-08T14:51:07.105Z,101815.40
2022-08-08T14:53:55.099Z,101818.60
2022-08-08T14:56:26.908Z,101815.60
2022-08-08T14:58:58.675Z,101811.40
2022-08-08T15:01:41.186Z,101813.40
2022-08-08T15:04:11.708Z,101813.00
2022-08-08T15:06:45.322Z,101813.00
2022-08-08T15:09:14.409Z,101809.20
2022-08-08T15:11:46.599Z,101810.80
2022-08-08T15:14:25.224Z,101808.80
2022-08-08T15:16:56.915Z,101808.00
2022-08-08T15:19:27.787Z,101803.60
2022-08-08T15:21:57.886Z,101805.20
2022-08-08T15:24:31.302Z,101804.80
2022-08-08T15:27:12.025Z,101804.00
2022-08-08T15:29:50.466Z,101803.40
2022-08-08T15:32:26.288Z,101798.20
2022-08-08T15:35:00.163Z,101800.60
2022-08-08T15:37:30.646Z,101802.60
2022-08-08T15:40:00.468Z,101803.00
2022-08-08T15:42:31.998Z,101802.20
2022-08-08T15:45:11.495Z,101802.40
2022-08-08T15:47:40.897Z,101804.60
2022-08-08T15:50:49.998Z,101800.20
2022-08-08T15:53:21.073Z,101801.80
2022-08-08T15:55:50.202Z,101802.00
2022-08-08T15:58:19.880Z,101805.80
2022-08-08T16:00:57.367Z,101806.60
2022-08-08T16:03:26.366Z,101806.80
2022-08-08T16:06:02.076Z,101806.40
2022-08-08T16:08:31.319Z,101807.60
2022-08-08T16:13:09.902Z,101803.60
2022-08-08T16:13:50.165Z,101804.20
2022-08-08T16:16:22.395Z,101798.20
2022-08-08T16:18:56.431Z,101798.60
2022-08-08T16:21:31.867Z,101798.20
2022-08-08T16:24:10.235Z,101797.20
2022-08-08T16:26:42.363Z,101797.00
2022-08-08T16:29:16.231Z,101798.80
2022-08-08T16:31:48.499Z,101801.20
2022-08-08T16:34:21.623Z,101796.20
2022-08-08T16:36:50.982Z,101788.80
2022-08-08T16:39:48.953Z,101790.00
2022-08-08T16:42:17.755Z,101791.60
2022-08-08T16:44:55.231Z,101792.60
2022-08-08T16:47:41.952Z,101794.40
2022-08-08T16:50:16.009Z,101786.00
2022-08-08T16:55:04.210Z,101790.60
2022-08-08T16:55:55.368Z,101793.60
2022-08-08T16:58:34.247Z,101794.40
2022-08-08T17:01:09.214Z,101792.80
2022-08-08T17:04:00.933Z,101792.40
2022-08-08T17:06:39.738Z,101795.40
2022-08-08T17:09:14.958Z,101796.00
2022-08-08T17:11:49.089Z,101801.20
2022-08-08T17:14:27.603Z,101800.40
2022-08-08T17:17:06.365Z,101799.80
2022-08-08T17:19:55.285Z,101802.60
2022-08-08T17:22:33.170Z,101806.40
2022-08-08T17:25:11.945Z,101805.80
2022-08-08T17:27:46.141Z,101806.00
2022-08-08T17:30:27.495Z,101809.40
2022-08-08T17:34:35.591Z,101810.00
2022-08-08T17:35:55.415Z,101810.60
2022-08-08T17:38:37.194Z,101812.00
2022-08-08T17:41:07.747Z,101818.60
2022-08-08T17:44:01.263Z,101816.40
2022-08-08T17:46:35.714Z,101816.00
2022-08-08T17:49:09.821Z,101822.20
2022-08-08T17:51:39.485Z,101815.60
2022-08-08T17:54:22.584Z,101817.20
2022-08-08T17:56:58.029Z,101818.00
2022-08-08T17:59:30.518Z,101820.40
2022-08-08T18:02:11.174Z,101821.40
2022-08-08T18:04:49.363Z,101827.40
2022-08-08T18:08:11.596Z,101825.20
2022-08-08T18:12:51.877Z,101832.80
2022-08-08T18:15:22.407Z,101831.00
2022-08-08T18:18:10.026Z,101829.80
2022-08-08T18:20:55.106Z,101833.20
2022-08-08T18:23:28.405Z,101835.60
2022-08-08T18:26:01.646Z,101839.40
2022-08-08T18:28:34.896Z,101846.40
2022-08-08T18:31:22.316Z,101850.80
2022-08-08T18:34:25.214Z,101853.40
2022-08-08T18:36:44.613Z,101858.00
2022-08-08T18:39:27.421Z,101867.80
2022-08-08T18:42:03.246Z,101863.20
2022-08-08T18:44:36.096Z,101869.60
2022-08-08T18:47:05.225Z,101870.60
2022-08-08T18:49:54.857Z,101876.80
2022-08-08T18:52:23.640Z,101876.80
2022-08-08T18:54:59.597Z,101882.40
2022-08-08T18:57:44.562Z,101889.00
2022-08-08T19:00:21.476Z,101891.20
2022-08-08T19:02:56.942Z,101897.00
2022-08-08T19:05:37.363Z,101896.00
2022-08-08T19:08:24.082Z,101897.80
2022-08-08T19:10:55.379Z,101898.00
2022-08-08T19:13:25.262Z,101903.60
2022-08-08T19:16:09.250Z,101904.20
2022-08-08T19:18:59.975Z,101907.20
2022-08-08T19:21:49.178Z,101904.80
2022-08-08T19:24:48.504Z,101910.60
2022-08-08T19:27:10.635Z,101913.20
2022-08-08T19:29:45.847Z,101910.80
2022-08-08T19:32:19.535Z,101913.40
2022-08-08T19:34:52.443Z,101920.40
2022-08-08T19:37:43.705Z,101924.40
2022-08-08T19:40:16.297Z,101922.60
2022-08-08T19:42:47.300Z,101923.60
2022-08-08T19:45:59.006Z,101925.20
2022-08-08T19:48:29.256Z,101922.60
2022-08-08T19:51:01.080Z,101926.20
2022-08-08T19:53:53.172Z,101929.20
2022-08-08T19:56:25.849Z,101928.20
2022-08-08T19:59:10.403Z,101927.80
2022-08-08T20:02:02.176Z,101931.00
2022-08-08T20:04:30.663Z,101940.20
2022-08-08T20:07:05.136Z,101941.60
2022-08-08T20:09:55.639Z,101941.40
2022-08-08T20:12:34.436Z,101951.80
2022-08-08T20:15:14.629Z,101947.20
2022-08-08T20:17:48.059Z,101952.20
2022-08-08T20:20:20.640Z,101957.00
2022-08-08T20:22:52.873Z,101958.60
2022-08-08T20:25:29.690Z,101963.40
2022-08-08T20:28:07.040Z,101964.00
2022-08-08T20:30:55.651Z,101964.00
2022-08-08T20:35:58.787Z,101968.40
2022-08-08T20:38:33.425Z,101965.00
2022-08-08T20:41:05.647Z,101967.40
2022-08-08T20:43:49.513Z,101962.60
2022-08-08T20:46:25.574Z,101966.20
2022-08-08T20:48:58.314Z,101969.80
2022-08-08T20:51:32.587Z,101979.40
2022-08-08T20:54:04.221Z,101980.00
2022-08-08T20:57:05.718Z,101978.20
2022-08-08T20:59:30.754Z,101976.80
2022-08-08T21:02:06.575Z,101973.60
2022-08-08T21:04:37.344Z,101977.80
2022-08-08T21:07:13.845Z,101982.40
2022-08-08T21:10:01.769Z,101980.60
2022-08-08T21:12:38.734Z,101981.20
2022-08-08T21:15:11.185Z,101979.00
2022-08-08T21:17:45.732Z,101981.20
2022-08-08T21:20:34.180Z,101978.00
2022-08-08T21:23:04.283Z,101985.40
2022-08-08T21:25:38.111Z,101986.00
2022-08-08T21:28:15.562Z,101985.80
2022-08-08T21:30:49.792Z,101991.20
2022-08-08T21:33:21.483Z,101991.80
2022-08-08T21:36:16.992Z,101991.60
2022-08-08T21:38:39.434Z,101998.60
2022-08-08T21:41:08.531Z,101997.00
2022-08-08T21:43:47.764Z,101999.20
2022-08-08T21:48:20.286Z,101994.00
2022-08-08T21:49:10.041Z,101997.00
2022-08-08T21:54:36.226Z,102000.60
2022-08-08T21:55:01.685Z,101993.60
2022-08-08T21:57:20.215Z,101994.80
2022-08-08T22:00:02.556Z,101997.00
2022-08-08T22:02:44.554Z,101995.60
2022-08-08T22:05:15.336Z,102004.40
2022-08-08T22:07:48.559Z,101998.00
2022-08-08T22:10:32.034Z,102003.20
2022-08-08T22:13:17.048Z,102001.60
2022-08-08T22:15:58.741Z,102001.00
2022-08-08T22:18:32.616Z,102002.80
2022-08-08T22:21:13.972Z,101999.20
2022-08-08T22:23:51.185Z,102004.00
2022-08-08T22:26:29.598Z,102006.00
2022-08-08T22:29:13.297Z,102009.00
2022-08-08T22:31:58.624Z,102003.80
2022-08-08T22:34:39.969Z,102007.40
2022-08-08T22:37:14.956Z,102003.60
2022-08-08T22:40:00.217Z,102011.60
2022-08-08T22:42:34.656Z,102010.00
2022-08-08T22:45:12.202Z,102012.60
2022-08-08T22:47:47.170Z,102013.00
2022-08-08T22:50:26.940Z,102012.40
2022-08-08T22:54:29.150Z,102011.40
2022-08-08T22:55:57.676Z,102014.00
2022-08-08T22:58:34.686Z,102010.60
2022-08-08T23:02:00.599Z,102016.00
2022-08-08T23:04:00.074Z,102016.80
2022-08-08T23:06:29.111Z,102015.20
2022-08-08T23:09:00.215Z,102019.20
2022-08-08T23:12:18.877Z,102020.20
2022-08-08T23:14:21.713Z,102019.80
2022-08-08T23:16:57.725Z,102016.40
2022-08-08T23:19:30.936Z,102011.60
2022-08-08T23:22:04.759Z,102008.00
2022-08-08T23:24:41.435Z,102007.20
2022-08-08T23:27:38.098Z,102008.00
2022-08-08T23:30:04.194Z,102008.40
2022-08-08T23:32:33.458Z,102013.80
2022-08-08T23:35:08.179Z,102017.40
2022-08-08T23:38:02.351Z,102015.00
2022-08-08T23:40:26.077Z,102018.40
2022-08-08T23:42:54.867Z,102016.20
2022-08-08T23:49:06.940Z,102014.60
2022-08-08T23:49:08.767Z,102013.00
2022-08-08T23:51:01.683Z,102006.60
2022-08-08T23:54:06.456Z,102005.80
2022-08-08T23:56:23.842Z,102005.00
2022-08-08T23:58:53.037Z,102009.40
